Time;durP1;ratioP1;P1;durP2;ratioP2;P2;SDS_P1;SDS_P2;PMS_P1;PMS_P2;Temp;Humidity;BMP_temperature;BMP_pressure;BME280_temperature;BME280_humidity;BME280_pressure;Samples;Min_cycle;Max_cycle;Signal;HPM_P1;HPM_P2
2022/07/13 00:01:30;;;;;;;2.28;1.63;;;;;;;17.25;69.14;94913.41;5053312;28;20205;-63
2022/07/13 00:03:59;;;;;;;4.25;1.85;;;;;;;17.18;68.95;94917.59;5053647;28;20197;-60
2022/07/13 00:06:24;;;;;;;2.33;1.90;;;;;;;17.20;68.32;94939.59;5051822;28;20720;-61
2022/07/13 00:08:50;;;;;;;2.85;1.85;;;;;;;17.19;68.72;94932.06;5053659;28;20197;-64
2022/07/13 00:11:15;;;;;;;3.38;2.10;;;;;;;17.22;69.07;94929.16;5035291;28;20272;-59
2022/07/13 00:13:41;;;;;;;5.13;1.88;;;;;;;17.27;69.45;94924.34;5053455;28;20706;-60
2022/07/13 00:16:06;;;;;;;2.47;1.60;;;;;;;17.25;70.21;94921.13;5052307;28;20178;-60
2022/07/13 00:18:32;;;;;;;2.83;1.70;;;;;;;17.34;70.63;94925.28;5053294;28;20186;-61
2022/07/13 00:20:57;;;;;;;2.13;1.35;;;;;;;17.21;71.33;94914.72;5053068;28;20185;-61
2022/07/13 00:23:24;;;;;;;2.63;1.45;;;;;;;17.25;70.84;94927.06;5035225;28;20201;-61
2022/07/13 00:25:49;;;;;;;2.67;1.65;;;;;;;17.10;72.68;94900.44;5053015;28;20182;-61
2022/07/13 00:28:15;;;;;;;2.28;1.85;;;;;;;16.95;73.03;94916.69;5052833;28;20278;-62
2022/07/13 00:30:41;;;;;;;4.05;1.70;;;;;;;16.86;73.50;94913.31;5034995;28;20217;-64
2022/07/13 00:33:07;;;;;;;4.15;1.77;;;;;;;16.51;74.35;94909.28;5052805;28;20213;-60
2022/07/13 00:35:32;;;;;;;2.20;1.70;;;;;;;16.51;73.77;94934.13;5060131;22;20221;-60
2022/07/13 00:37:58;;;;;;;2.65;1.40;;;;;;;16.38;73.80;94931.22;5052264;28;20304;-60
2022/07/13 00:40:23;;;;;;;6.97;2.08;;;;;;;16.30;73.58;94939.69;5052926;28;20185;-60
2022/07/13 00:42:49;;;;;;;3.03;1.98;;;;;;;16.25;73.98;94934.25;5052615;28;20213;-61
2022/07/13 00:45:14;;;;;;;2.58;1.52;;;;;;;16.27;74.79;94932.31;5052538;28;20193;-60
2022/07/13 00:47:39;;;;;;;5.65;2.00;;;;;;;16.51;73.70;94952.09;5052557;28;20209;-60
2022/07/13 00:50:07;;;;;;;2.65;1.45;;;;;;;16.30;74.00;94942.25;5052581;28;20713;-60
2022/07/13 00:52:37;;;;;;;5.13;1.73;;;;;;;16.39;72.99;94959.28;5052160;28;20205;-63
2022/07/13 00:55:06;;;;;;;1.73;1.50;;;;;;;16.24;73.48;94945.44;5052459;28;20780;-60
2022/07/13 00:57:37;;;;;;;1.83;1.38;;;;;;;15.93;75.11;94927.28;5052236;28;20205;-60
2022/07/13 01:00:14;;;;;;;3.70;1.60;;;;;;;15.67;74.40;94935.97;5052388;28;20190;-63
2022/07/13 01:02:40;;;;;;;4.15;1.35;;;;;;;15.52;74.98;94929.81;5051877;28;20979;-61
2022/07/13 01:05:07;;;;;;;2.63;1.50;;;;;;;15.31;75.95;94901.94;5051637;28;20327;-61
2022/07/13 01:07:33;;;;;;;2.47;1.50;;;;;;;15.20;77.71;94904.78;5052081;28;20286;-62
2022/07/13 01:10:00;;;;;;;5.30;1.95;;;;;;;14.96;79.36;94908.00;5052047;28;20774;-62
2022/07/13 01:12:29;;;;;;;2.40;1.50;;;;;;;15.08;79.62;94924.72;5052226;28;20328;-61
2022/07/13 01:15:04;;;;;;;6.38;2.10;;;;;;;15.06;79.82;94929.19;5052283;28;20276;-61
2022/07/13 01:17:30;;;;;;;4.20;1.80;;;;;;;14.84;81.91;94916.06;5051985;28;20694;-62
2022/07/13 01:19:57;;;;;;;2.65;1.65;;;;;;;14.73;82.20;94942.69;5052093;28;20189;-61
2022/07/13 01:22:31;;;;;;;5.50;1.77;;;;;;;15.07;80.99;94951.28;5051984;28;20213;-64
2022/07/13 01:24:58;;;;;;;2.50;1.67;;;;;;;15.22;79.01;94969.47;5051941;28;20284;-64
2022/07/13 01:27:23;;;;;;;2.25;1.38;;;;;;;14.94;80.05;94950.06;5034071;28;20240;-65
2022/07/13 01:29:49;;;;;;;6.35;1.70;;;;;;;15.06;78.32;94972.75;5051660;28;20225;-64
2022/07/13 01:32:14;;;;;;;3.38;1.13;;;;;;;14.85;79.19;94956.88;5051869;28;20201;-63
2022/07/13 01:34:40;;;;;;;2.97;0.88;;;;;;;14.86;76.85;94989.22;5051713;28;20192;-61
2022/07/13 01:37:05;;;;;;;4.35;1.13;;;;;;;14.80;77.16;94971.88;5051631;28;20213;-61
2022/07/13 01:39:30;;;;;;;1.08;1.00;;;;;;;14.66;77.38;94964.72;5051871;28;20235;-61
2022/07/13 01:41:56;;;;;;;0.90;0.90;;;;;;;14.70;78.30;94955.00;5051513;28;20825;-62
2022/07/13 01:44:21;;;;;;;2.95;1.10;;;;;;;14.60;79.87;94932.06;5051691;28;20626;-60
2022/07/13 01:46:47;;;;;;;1.30;1.15;;;;;;;14.68;79.48;94939.78;5051750;28;20715;-60
2022/07/13 01:49:13;;;;;;;2.05;1.27;;;;;;;14.82;78.74;94952.06;5051670;28;20185;-60
2022/07/13 01:51:39;;;;;;;5.40;1.25;;;;;;;14.95;78.54;94954.22;5051541;28;20247;-60
2022/07/13 01:54:04;;;;;;;2.13;1.15;;;;;;;14.98;78.45;94947.06;5051548;28;20185;-60
2022/07/13 01:56:30;;;;;;;3.22;1.35;;;;;;;14.99;79.04;94943.53;5051898;28;20691;-60
2022/07/13 01:58:55;;;;;;;1.38;1.10;;;;;;;14.97;79.43;94931.84;5051642;28;20656;-60
2022/07/13 02:01:21;;;;;;;2.97;1.38;;;;;;;14.98;79.83;94925.78;5051621;28;20228;-60
2022/07/13 02:03:46;;;;;;;2.90;1.10;;;;;;;14.83;79.39;94940.88;5051588;28;20721;-60
2022/07/13 02:06:12;;;;;;;1.95;1.10;;;;;;;14.75;79.22;94932.31;5055870;28;20185;-61
2022/07/13 02:08:38;;;;;;;2.03;1.60;;;;;;;14.70;80.51;94927.66;5055584;28;20178;-61
2022/07/13 02:11:03;;;;;;;2.95;1.40;;;;;;;14.66;81.42;94915.31;5055560;28;20251;-61
2022/07/13 02:13:29;;;;;;;1.40;1.07;;;;;;;14.71;81.11;94921.56;5055405;28;20554;-61
2022/07/13 02:15:54;;;;;;;9.97;1.50;;;;;;;14.69;81.07;94926.03;5055374;28;20217;-62
2022/07/13 02:18:20;;;;;;;3.92;1.73;;;;;;;14.56;82.18;94915.38;5055253;28;20209;-62
2022/07/13 02:20:46;;;;;;;3.65;1.35;;;;;;;14.57;82.38;94916.97;5055701;28;20205;-64
2022/07/13 02:23:11;;;;;;;3.42;2.30;;;;;;;14.73;82.08;94929.09;5055352;28;20703;-61
2022/07/13 02:25:37;;;;;;;3.83;1.75;;;;;;;14.66;82.75;94920.41;5055322;28;20190;-61
2022/07/13 02:28:04;;;;;;;3.15;1.50;;;;;;;14.85;82.21;94926.16;5055205;28;20232;-60
2022/07/13 02:30:30;;;;;;;2.45;1.33;;;;;;;14.88;82.01;94932.75;5055297;28;20220;-60
2022/07/13 02:32:56;;;;;;;4.50;2.15;;;;;;;14.95;80.68;94955.03;5037251;28;20304;-62
2022/07/13 02:35:21;;;;;;;3.40;1.70;;;;;;;14.81;80.95;94937.66;5055152;28;20255;-60
2022/07/13 02:37:46;;;;;;;3.75;1.75;;;;;;;14.87;81.83;94926.00;5055015;28;20745;-61
2022/07/13 02:40:12;;;;;;;4.63;1.52;;;;;;;14.87;82.33;94919.13;5055038;28;20201;-61
2022/07/13 02:42:38;;;;;;;2.97;1.52;;;;;;;14.83;82.25;94925.50;5054926;28;20276;-64
2022/07/13 02:45:04;;;;;;;9.35;2.15;;;;;;;14.78;82.28;94922.59;5037159;28;20190;-64
2022/07/13 02:47:30;;;;;;;2.17;1.60;;;;;;;14.93;82.72;94918.53;5036970;28;20293;-62
2022/07/13 02:49:55;;;;;;;3.75;2.05;;;;;;;14.94;82.03;94924.47;5054764;28;20679;-61
2022/07/13 02:52:20;;;;;;;2.25;1.40;;;;;;;14.93;82.46;94923.66;5054597;28;20206;-61
2022/07/13 02:54:46;;;;;;;9.45;3.75;;;;;;;14.71;83.50;94907.97;5054671;28;20185;-61
2022/07/13 02:57:11;;;;;;;6.35;2.08;;;;;;;14.58;83.47;94913.50;5061642;22;20221;-62
2022/07/13 02:59:37;;;;;;;13.63;2.53;;;;;;;14.71;83.76;94911.34;5054753;28;20201;-61
2022/07/13 03:02:04;;;;;;;4.25;2.50;;;;;;;14.87;83.78;94914.00;5054700;28;20244;-62
2022/07/13 03:04:30;;;;;;;3.40;2.00;;;;;;;14.91;84.00;94907.66;5054529;28;20186;-62
2022/07/13 03:06:55;;;;;;;3.13;1.58;;;;;;;15.02;84.21;94917.66;5054829;28;20220;-62
2022/07/13 03:09:21;;;;;;;6.28;1.98;;;;;;;14.89;84.77;94916.41;5054465;28;20645;-62
2022/07/13 03:11:46;;;;;;;1.88;1.60;;;;;;;15.05;84.17;94930.13;5054732;28;20225;-62
2022/07/13 03:14:12;;;;;;;4.47;1.95;;;;;;;15.12;84.91;94917.53;5054525;28;20177;-61
2022/07/13 03:16:37;;;;;;;6.07;2.42;;;;;;;15.31;83.99;94924.22;5061161;22;20210;-61
2022/07/13 03:19:02;;;;;;;3.85;2.40;;;;;;;15.28;83.64;94927.06;5054416;28;20264;-62
2022/07/13 03:21:29;;;;;;;11.02;2.47;;;;;;;15.02;82.61;94942.44;5036189;28;20351;-62
2022/07/13 03:23:55;;;;;;;5.70;2.17;;;;;;;14.61;85.16;94909.81;5054198;28;20272;-60
2022/07/13 03:26:20;;;;;;;3.55;2.20;;;;;;;14.55;83.66;94924.00;5054552;28;20221;-61
2022/07/13 03:28:45;;;;;;;4.50;1.45;;;;;;;14.59;83.10;94940.66;5054244;28;20567;-60
2022/07/13 03:31:11;;;;;;;3.58;1.65;;;;;;;14.53;82.40;94940.44;5036238;28;20679;-61
2022/07/13 03:33:36;;;;;;;2.15;1.33;;;;;;;14.66;82.58;94941.69;5054383;28;20192;-60
2022/07/13 03:36:08;;;;;;;3.95;1.77;;;;;;;14.70;81.92;94944.75;5053967;28;20189;-60
2022/07/13 03:38:35;;;;;;;6.80;2.20;;;;;;;14.63;82.66;94929.19;5054124;28;20240;-63
2022/07/13 03:41:00;;;;;;;3.08;1.73;;;;;;;14.57;83.06;94929.78;5054189;28;20712;-63
2022/07/13 03:43:26;;;;;;;3.38;1.67;;;;;;;14.51;83.32;94929.56;5060900;22;20225;-62
2022/07/13 03:45:51;;;;;;;3.40;1.75;;;;;;;14.49;83.20;94929.72;5053857;28;20582;-62
2022/07/13 03:48:17;;;;;;;4.15;1.83;;;;;;;14.60;82.41;94936.38;5053793;28;20213;-63
2022/07/13 03:50:49;;;;;;;4.20;1.42;;;;;;;14.56;82.61;94942.72;5053496;28;20201;-62
2022/07/13 03:53:15;;;;;;;7.43;2.20;;;;;;;14.49;81.83;94950.16;5053812;28;20236;-60
2022/07/13 03:55:42;;;;;;;3.30;1.70;;;;;;;14.46;82.56;94944.56;5053498;28;20189;-60
2022/07/13 03:58:10;;;;;;;4.95;1.73;;;;;;;14.19;85.06;94907.84;5053450;28;20209;-60
2022/07/13 04:00:36;;;;;;;6.43;2.00;;;;;;;14.26;84.95;94918.28;5053543;28;20327;-60
2022/07/13 04:03:01;;;;;;;3.80;2.15;;;;;;;14.34;84.58;94930.38;5053771;28;20217;-61
2022/07/13 04:05:27;;;;;;;5.93;2.05;;;;;;;14.43;85.63;94909.81;5035580;28;20185;-60
2022/07/13 04:07:52;;;;;;;4.53;1.90;;;;;;;14.60;85.29;94915.88;5053693;28;20587;-61
2022/07/13 04:10:21;;;;;;;5.95;1.90;;;;;;;14.93;83.98;94944.13;5053394;28;20223;-60
2022/07/13 04:12:47;;;;;;;2.95;1.85;;;;;;;14.96;83.46;94953.28;5053310;28;20209;-61
2022/07/13 04:15:13;;;;;;;1.98;1.67;;;;;;;14.88;83.32;94945.53;5053328;28;20197;-61
2022/07/13 04:17:42;;;;;;;4.75;2.55;;;;;;;14.87;83.34;94949.84;5053498;28;20213;-63
2022/07/13 04:20:09;;;;;;;5.68;2.15;;;;;;;14.83;83.71;94945.16;5053416;28;20286;-61
2022/07/13 04:22:35;;;;;;;7.03;2.35;;;;;;;14.85;85.11;94933.03;5053417;28;20217;-60
2022/07/13 04:25:00;;;;;;;9.57;2.58;;;;;;;14.93;83.93;94953.56;5053181;28;20189;-62
2022/07/13 04:27:26;;;;;;;5.15;2.40;;;;;;;14.86;84.21;94947.44;5034625;28;20262;-60
2022/07/13 04:29:52;;;;;;;3.90;2.05;;;;;;;14.90;87.30;94918.03;5052936;28;20209;-60
2022/07/13 04:32:17;;;;;;;2.50;2.03;;;;;;;15.00;86.44;94924.69;5052731;28;20259;-63
2022/07/13 04:34:43;;;;;;;7.15;2.75;;;;;;;15.15;84.65;94956.47;5052938;28;20181;-60
2022/07/13 04:37:08;;;;;;;5.03;2.95;;;;;;;15.03;83.77;94967.09;5052929;28;20274;-59
2022/07/13 04:39:34;;;;;;;12.13;2.63;;;;;;;15.22;92.53;94912.31;5052913;28;20330;-61
2022/07/13 04:41:59;;;;;;;3.13;2.40;;;;;;;15.90;100.00;94947.25;5052961;28;20204;-60
2022/07/13 04:44:28;;;;;;;5.18;2.35;;;;;;;16.49;100.00;94946.31;5052778;28;20197;-59
2022/07/13 04:46:53;;;;;;;4.22;2.50;;;;;;;17.13;100.00;94961.75;5052944;28;20214;-63
2022/07/13 04:49:19;;;;;;;8.13;2.13;;;;;;;17.88;100.00;94959.69;5052937;28;20185;-62
2022/07/13 04:51:48;;;;;;;3.75;2.33;;;;;;;18.43;99.16;95009.34;5052531;28;20778;-63
2022/07/13 04:54:18;;;;;;;4.55;2.65;;;;;;;18.60;89.19;95067.53;5052615;28;20177;-62
2022/07/13 04:56:43;;;;;;;4.03;2.75;;;;;;;18.81;80.85;95137.28;5052426;28;20252;-63
2022/07/13 04:59:09;;;;;;;4.90;2.80;;;;;;;18.72;76.88;95152.97;5034598;28;20721;-62
2022/07/13 05:01:34;;;;;;;3.38;2.42;;;;;;;18.60;70.40;95236.72;5052411;28;20796;-61
2022/07/13 05:04:01;;;;;;;5.25;2.70;;;;;;;18.17;70.11;95205.19;5052428;28;20659;-62
2022/07/13 05:06:27;;;;;;;4.13;2.75;;;;;;;17.65;72.76;95142.19;5052300;28;20262;-61
2022/07/13 05:08:53;;;;;;;3.00;2.47;;;;;;;17.24;73.45;95128.47;5052235;28;20292;-65
2022/07/13 05:11:18;;;;;;;7.35;3.00;;;;;;;16.95;75.87;95079.28;5052227;28;20213;-62
2022/07/13 05:13:43;;;;;;;4.68;3.17;;;;;;;16.91;75.77;95084.91;5052183;28;20231;-63
2022/07/13 05:16:09;;;;;;;4.45;2.88;;;;;;;16.60;77.46;95061.56;5034290;28;20200;-60
2022/07/13 05:18:34;;;;;;;10.68;3.47;;;;;;;16.43;77.66;95054.72;5052146;28;20178;-62
2022/07/13 05:21:00;;;;;;;5.97;3.25;;;;;;;16.37;79.02;95038.19;5052043;28;20193;-61
2022/07/13 05:23:26;;;;;;;7.20;3.78;;;;;;;16.26;78.87;95046.16;5052015;28;20178;-62
2022/07/13 05:25:51;;;;;;;6.15;3.10;;;;;;;16.55;79.69;95038.91;5034063;28;20186;-61
2022/07/13 05:28:17;;;;;;;8.52;3.28;;;;;;;16.43;78.17;95060.66;5052056;28;20197;-61
2022/07/13 05:30:42;;;;;;;27.42;10.45;;;;;;;16.68;96.15;94938.34;5051868;28;20604;-61
2022/07/13 05:33:08;;;;;;;13.65;2.92;;;;;;;16.69;80.29;95092.22;5051852;28;20266;-62
2022/07/13 05:35:33;;;;;;;9.55;3.33;;;;;;;16.78;77.69;95113.59;5052060;28;20194;-60
2022/07/13 05:37:59;;;;;;;4.63;2.92;;;;;;;16.87;75.69;95132.41;5033527;28;20217;-62
2022/07/13 05:40:25;;;;;;;6.50;2.60;;;;;;;17.19;74.84;95147.91;5049688;28;20189;-62
2022/07/13 05:42:51;;;;;;;6.93;3.03;;;;;;;16.91;75.53;95124.22;5050340;28;20368;-61
2022/07/13 05:45:17;;;;;;;10.57;3.20;;;;;;;16.99;75.33;95134.50;5051728;28;20188;-62
2022/07/13 05:47:46;;;;;;;5.65;2.75;;;;;;;16.94;75.35;95130.81;5052279;28;20288;-65
2022/07/13 05:50:13;;;;;;;4.78;2.20;;;;;;;16.98;73.86;95150.09;5051814;28;20240;-60
2022/07/13 05:55:03;;;;;;;4.40;1.80;;;;;;;17.04;72.40;95157.16;5052303;22;20703;-62
2022/07/13 05:57:29;;;;;;;5.82;1.70;;;;;;;16.90;70.40;95204.00;5051585;28;20466;-63
2022/07/13 05:59:54;;;;;;;6.88;1.90;;;;;;;16.93;70.96;95168.53;5051414;28;20190;-61
2022/07/13 06:02:20;;;;;;;5.18;1.63;;;;;;;17.08;70.77;95184.16;5051479;28;20216;-62
2022/07/13 06:04:46;;;;;;;2.67;1.75;;;;;;;17.31;71.42;95159.50;5051796;28;20217;-61
2022/07/13 06:07:12;;;;;;;2.60;1.20;;;;;;;17.22;67.75;95232.38;5051306;28;20707;-62
2022/07/13 06:09:38;;;;;;;4.68;1.05;;;;;;;17.21;67.80;95223.06;5051559;28;20178;-62
2022/07/13 06:12:03;;;;;;;4.63;1.30;;;;;;;17.31;67.96;95210.91;5000644;28;20271;-62
2022/07/13 06:14:29;;;;;;;3.00;1.27;;;;;;;17.42;68.32;95202.88;5051559;28;20200;-63
2022/07/13 06:16:54;;;;;;;2.45;1.20;;;;;;;17.45;65.69;95259.13;5051261;28;20232;-63
2022/07/13 06:19:19;;;;;;;6.35;1.77;;;;;;;17.45;65.94;95234.19;5051209;28;20189;-64
2022/07/13 06:21:45;;;;;;;8.60;1.52;;;;;;;17.52;66.40;95227.50;5051153;28;20232;-60
2022/07/13 06:24:10;;;;;;;2.63;1.55;;;;;;;17.63;66.24;95223.84;5051556;28;20639;-63
2022/07/13 06:26:36;;;;;;;4.57;1.52;;;;;;;17.74;70.69;95100.06;5051269;28;20205;-63
2022/07/13 06:29:01;;;;;;;7.20;2.28;;;;;;;18.38;72.14;95096.56;5051363;28;20240;-60
2022/07/13 06:31:27;;;;;;;1.67;1.20;;;;;;;18.69;66.92;95205.59;5051274;28;20265;-61
2022/07/13 06:33:53;;;;;;;2.92;1.55;;;;;;;18.95;65.01;95273.16;5051200;28;20227;-60
2022/07/13 06:36:19;;;;;;;5.03;1.40;;;;;;;19.25;64.11;95271.59;5051270;28;20209;-60
2022/07/13 06:38:44;;;;;;;8.38;1.70;;;;;;;19.29;63.43;95247.09;5051169;28;20239;-60
2022/07/13 06:41:09;;;;;;;8.88;1.77;;;;;;;19.57;61.02;95305.03;5051039;28;20307;-60
2022/07/13 06:43:35;;;;;;;7.70;1.92;;;;;;;19.66;61.64;95262.75;5051161;28;20658;-60
2022/07/13 06:46:01;;;;;;;3.22;1.20;;;;;;;19.85;60.24;95277.78;5051087;28;20227;-61
2022/07/13 06:48:26;;;;;;;2.78;1.48;;;;;;;19.76;56.73;95281.38;5051270;28;20292;-61
2022/07/13 06:50:52;;;;;;;2.10;1.35;;;;;;;19.68;55.48;95254.81;5052845;28;20642;-60
2022/07/13 06:53:17;;;;;;;2.45;1.30;;;;;;;19.88;58.62;95174.22;5036841;28;20603;-61
2022/07/13 06:55:42;;;;;;;4.88;1.38;;;;;;;19.85;55.13;95218.44;5054508;28;20652;-61
2022/07/13 06:58:08;;;;;;;6.88;1.58;;;;;;;19.76;57.02;95172.19;5054401;28;20210;-64
2022/07/13 07:00:33;;;;;;;3.53;1.40;;;;;;;19.78;54.57;95220.09;5036743;28;20194;-64
2022/07/13 07:02:58;;;;;;;2.67;1.60;;;;;;;19.74;55.96;95177.53;5036546;28;20210;-63
2022/07/13 07:05:24;;;;;;;11.90;1.30;;;;;;;19.81;56.17;95169.91;5054597;28;20239;-63
2022/07/13 07:07:50;;;;;;;1.75;0.90;;;;;;;19.68;54.76;95201.44;5054348;28;20209;-64
2022/07/13 07:10:16;;;;;;;3.35;1.40;;;;;;;19.85;55.76;95177.16;5054458;28;20231;-62
2022/07/13 07:12:41;;;;;;;5.15;1.35;;;;;;;19.87;56.53;95149.38;5054249;28;20209;-63
2022/07/13 07:15:07;;;;;;;1.38;1.23;;;;;;;20.38;56.08;95165.88;5054698;28;20280;-62
2022/07/13 07:17:33;;;;;;;3.55;1.38;;;;;;;20.63;54.15;95210.34;5054471;28;20233;-61
2022/07/13 07:20:00;;;;;;;2.60;1.27;;;;;;;20.36;52.80;95211.72;5054230;28;20564;-60
2022/07/13 07:22:26;;;;;;;2.75;1.88;;;;;;;20.42;53.63;95192.16;5054105;28;20217;-61
2022/07/13 07:24:51;;;;;;;3.40;1.35;;;;;;;20.46;52.93;95216.66;5054175;28;20267;-62
2022/07/13 07:27:17;;;;;;;4.18;1.10;;;;;;;20.44;51.59;95241.88;5054017;28;20687;-60
2022/07/13 07:29:43;;;;;;;1.40;0.90;;;;;;;20.38;51.65;95227.84;5053810;28;20194;-62
2022/07/13 07:32:08;;;;;;;1.67;1.20;;;;;;;20.53;51.29;95239.03;5053951;28;20841;-60
2022/07/13 07:34:34;;;;;;;2.40;1.13;;;;;;;20.70;52.81;95198.34;5054197;28;20201;-60
2022/07/13 07:36:59;;;;;;;4.90;1.60;;;;;;;21.09;52.07;95224.72;5053848;28;20213;-63
2022/07/13 07:39:25;;;;;;;3.00;1.30;;;;;;;21.21;50.63;95248.34;5054316;28;20198;-60
2022/07/13 07:41:51;;;;;;;4.78;1.30;;;;;;;21.07;51.21;95223.31;5053655;28;20220;-60
2022/07/13 07:44:18;;;;;;;2.55;1.60;;;;;;;21.21;50.42;95230.25;5053949;28;20186;-60
2022/07/13 07:46:44;;;;;;;2.47;1.50;;;;;;;21.45;51.21;95212.59;5053603;28;20694;-63
2022/07/13 07:49:10;;;;;;;5.03;1.70;;;;;;;21.33;50.01;95237.34;5053498;28;20303;-63
2022/07/13 07:51:35;;;;;;;2.05;1.38;;;;;;;21.49;50.29;95228.59;5053396;28;20284;-62
2022/07/13 07:54:01;;;;;;;6.53;1.83;;;;;;;21.48;49.04;95247.69;5053468;28;20185;-60
2022/07/13 07:56:27;;;;;;;2.10;1.27;;;;;;;21.50;50.06;95205.13;5053999;28;20295;-65
2022/07/13 07:58:52;;;;;;;4.22;0.90;;;;;;;21.48;47.52;95265.78;5053801;28;20565;-60
2022/07/13 08:01:18;;;;;;;4.68;1.48;;;;;;;21.39;48.42;95252.16;5052880;28;20323;-61
2022/07/13 08:03:43;;;;;;;6.38;1.75;;;;;;;21.30;47.64;95252.44;5052939;28;20186;-59
2022/07/13 08:06:09;;;;;;;2.40;1.08;;;;;;;21.35;48.96;95216.50;5060419;22;20221;-60
2022/07/13 08:08:36;;;;;;;3.85;1.13;;;;;;;21.59;48.87;95216.16;5053573;28;20264;-61
2022/07/13 08:11:03;;;;;;;2.25;0.90;;;;;;;21.59;48.55;95218.75;5035149;28;20365;-61
2022/07/13 08:13:29;;;;;;;6.28;1.10;;;;;;;21.84;47.39;95247.69;5053109;28;20185;-61
2022/07/13 08:15:54;;;;;;;2.17;1.10;;;;;;;21.71;47.21;95243.94;5053581;28;20273;-61
2022/07/13 08:18:20;;;;;;;3.97;1.40;;;;;;;21.87;48.24;95216.25;5053091;28;20217;-60
2022/07/13 08:20:45;;;;;;;2.92;1.23;;;;;;;22.16;48.68;95219.50;5053468;28;20193;-62
2022/07/13 08:25:55;;;;;;;3.28;1.05;;;;;;;21.53;46.48;95246.13;5053474;28;20216;-60
2022/07/13 08:28:20;;;;;;;3.75;0.80;;;;;;;21.67;46.66;95237.53;5052823;28;20683;-61
2022/07/13 08:30:46;;;;;;;4.20;1.00;;;;;;;21.80;47.22;95228.28;5052620;28;20221;-61
2022/07/13 08:33:11;;;;;;;4.40;1.85;;;;;;;21.81;45.90;95259.25;5052751;28;20209;-61
2022/07/13 08:38:37;;;;;;;4.57;1.20;;;;;;;21.83;46.71;95218.44;5052871;28;20193;-61
2022/07/13 08:41:04;;;;;;;4.28;1.20;;;;;;;21.87;47.35;95211.09;5052993;28;20219;-60
2022/07/13 08:43:29;;;;;;;6.13;1.10;;;;;;;22.02;46.58;95233.34;5052652;28;20293;-60
2022/07/13 08:45:55;;;;;;;1.48;0.70;;;;;;;22.03;45.13;95260.03;5052779;28;20648;-61
2022/07/13 08:48:31;;;;;;;2.70;1.08;;;;;;;22.16;46.82;95216.13;5052298;28;20209;-61
2022/07/13 08:50:57;;;;;;;6.32;1.20;;;;;;;21.93;45.59;95247.41;5052524;28;20221;-60
2022/07/13 08:53:24;;;;;;;3.28;0.95;;;;;;;21.97;46.80;95212.38;5052290;28;20181;-61
2022/07/13 08:55:50;;;;;;;4.53;0.80;;;;;;;22.11;46.17;95229.66;5052327;28;20197;-60
2022/07/13 08:58:17;;;;;;;3.22;1.08;;;;;;;22.48;45.62;95247.47;5052290;28;20212;-63
2022/07/13 09:00:43;;;;;;;1.25;0.95;;;;;;;22.52;47.59;95196.84;5034840;28;20628;-62
2022/07/13 09:03:09;;;;;;;3.40;1.08;;;;;;;22.29;44.91;95257.69;5052211;28;20207;-63
2022/07/13 09:05:35;;;;;;;1.75;1.02;;;;;;;22.69;46.71;95222.53;5052675;28;20705;-64
2022/07/13 09:08:08;;;;;;;2.40;1.08;;;;;;;22.83;47.10;95201.66;5034304;28;20213;-59
2022/07/13 09:10:56;;;;;;;2.55;1.13;;;;;;;22.79;43.94;95265.28;5052410;28;20714;-61
2022/07/13 09:13:40;;;;;;;1.33;0.90;;;;;;;22.68;45.07;95244.25;5034079;28;20220;-64
2022/07/13 09:16:16;;;;;;;3.13;1.20;;;;;;;22.73;44.72;95253.06;5052088;28;20194;-63
2022/07/13 09:18:47;;;;;;;5.60;0.98;;;;;;;22.45;44.00;95260.00;5051902;28;20659;-63
2022/07/13 09:21:13;;;;;;;4.15;0.85;;;;;;;22.64;45.09;95243.84;5051907;28;20344;-62
2022/07/13 09:23:39;;;;;;;4.22;1.17;;;;;;;22.67;44.25;95242.66;5034122;28;20185;-64
2022/07/13 09:26:05;;;;;;;8.07;4.57;;;;;;;22.44;44.93;95220.31;5033952;28;20193;-64
2022/07/13 09:29:00;;;;;;;3.53;1.27;;;;;;;22.31;44.26;95228.03;5051808;28;20609;-64
2022/07/13 09:31:26;;;;;;;5.05;1.23;;;;;;;22.46;45.47;95196.84;5034548;28;20233;-64
2022/07/13 09:33:54;;;;;;;4.47;1.10;;;;;;;22.44;46.14;95196.22;5051888;28;20769;-62
2022/07/13 09:36:24;;;;;;;1.75;0.90;;;;;;;22.72;45.51;95207.41;5051697;28;20233;-63
2022/07/13 09:38:54;;;;;;;1.83;1.15;;;;;;;23.29;46.68;95178.53;5051773;28;20663;-63
2022/07/13 09:41:21;;;;;;;1.75;0.75;;;;;;;23.68;42.87;95268.75;5051576;28;20220;-63
2022/07/13 09:46:59;;;;;;;2.75;1.27;;;;;;;23.77;42.83;95257.19;5051587;28;20654;-63
2022/07/13 09:49:37;;;;;;;2.65;1.27;;;;;;;24.05;41.87;95278.69;5051879;28;20189;-63
2022/07/13 09:52:05;;;;;;;4.70;1.00;;;;;;;23.96;41.50;95277.22;5033557;28;20315;-63
2022/07/13 09:54:32;;;;;;;3.08;0.80;;;;;;;24.13;42.39;95249.91;5033994;28;20286;-62
2022/07/13 09:57:00;;;;;;;2.92;1.08;;;;;;;24.60;41.07;95283.53;5051464;28;20209;-63
2022/07/13 09:59:26;;;;;;;1.25;0.82;;;;;;;24.79;39.31;95313.16;5051626;28;20539;-59
2022/07/13 10:01:51;;;;;;;3.03;0.90;;;;;;;24.91;39.58;95298.53;5051776;28;20209;-61
2022/07/13 10:04:17;;;;;;;1.58;0.85;;;;;;;24.70;42.85;95215.50;5033772;28;20316;-64
2022/07/13 10:06:44;;;;;;;0.65;0.60;;;;;;;24.54;44.22;95180.31;5051522;28;20209;-61
2022/07/13 10:09:10;;;;;;;4.47;1.10;;;;;;;24.33;41.73;95239.50;5051494;28;20194;-61
2022/07/13 10:11:36;;;;;;;5.05;1.08;;;;;;;24.83;41.02;95244.91;5051270;28;20237;-61
2022/07/13 10:14:02;;;;;;;3.90;1.05;;;;;;;24.96;39.96;95268.31;5051654;28;20291;-59
2022/07/13 10:16:29;;;;;;;1.75;0.88;;;;;;;25.30;39.63;95262.03;5051296;28;20296;-62
2022/07/13 10:19:04;;;;;;;1.05;0.82;;;;;;;25.49;39.72;95257.78;5058446;22;20224;-60
2022/07/13 10:21:46;;;;;;;1.90;0.88;;;;;;;25.15;39.16;95268.50;5051085;28;20213;-61
2022/07/13 10:24:17;;;;;;;6.22;1.10;;;;;;;23.86;41.18;95214.44;5051423;28;20228;-63
2022/07/13 10:26:42;;;;;;;4.38;1.10;;;;;;;24.09;43.18;95153.38;5054619;28;20227;-62
2022/07/13 10:29:10;;;;;;;4.65;1.20;;;;;;;24.71;42.98;95165.06;5055746;28;20659;-63
2022/07/13 10:31:37;;;;;;;1.90;0.90;;;;;;;25.19;41.76;95194.19;5055108;28;20213;-61
2022/07/13 10:34:05;;;;;;;2.78;0.68;;;;;;;25.75;39.66;95236.81;5055540;28;20197;-62
2022/07/13 10:37:03;;;;;;;4.57;1.27;;;;;;;25.91;38.00;95274.63;5054986;28;20212;-61
2022/07/13 10:39:29;;;;;;;0.75;0.75;;;;;;;25.32;37.60;95274.84;4994691;28;20205;-62
2022/07/13 10:41:58;;;;;;;1.17;0.60;;;;;;;24.72;38.62;95229.91;5054700;28;20579;-62
2022/07/13 10:44:37;;;;;;;3.20;0.93;;;;;;;25.33;40.30;95191.31;5036882;28;20252;-62
2022/07/13 10:47:06;;;;;;;2.05;0.60;;;;;;;26.13;38.42;95242.03;5055241;28;20701;-62
2022/07/13 10:49:32;;;;;;;2.10;0.65;;;;;;;26.66;37.44;95268.53;5054786;28;20185;-61
2022/07/13 10:52:19;;;;;;;0.50;0.50;;;;;;;26.89;36.97;95285.19;5054489;28;20228;-62
2022/07/13 10:55:03;;;;;;;2.05;0.65;;;;;;;26.32;34.63;95294.03;5054973;28;20250;-63
2022/07/13 10:57:32;;;;;;;2.35;0.73;;;;;;;26.01;35.81;95261.94;5054568;28;20224;-63
2022/07/13 11:00:23;;;;;;;5.50;1.00;;;;;;;26.56;36.97;95220.22;5054872;28;20197;-63
2022/07/13 11:02:49;;;;;;;2.47;0.70;;;;;;;27.11;35.47;95254.28;5037560;28;20221;-61
2022/07/13 11:05:26;;;;;;;1.15;0.60;;;;;;;26.28;34.40;95258.97;5054504;28;20250;-62
2022/07/13 11:07:53;;;;;;;1.95;0.60;;;;;;;26.20;35.48;95227.16;5054190;28;20209;-63
2022/07/13 11:10:28;;;;;;;1.50;0.52;;;;;;;25.91;34.69;95251.97;5054233;28;20213;-61
2022/07/13 11:13:12;;;;;;;0.60;0.50;;;;;;;25.65;35.85;95213.03;5054256;28;20213;-62
2022/07/13 11:15:53;;;;;;;1.15;0.80;;;;;;;24.67;37.15;95172.47;5054220;28;20286;-61
2022/07/13 11:18:21;;;;;;;2.25;0.90;;;;;;;24.45;38.86;95139.94;5054445;28;20219;-59
2022/07/13 11:21:05;;;;;;;1.63;0.50;;;;;;;24.15;38.48;95152.56;5054305;28;20193;-60
2022/07/13 11:26:53;;;;;;;2.05;0.70;;;;;;;24.57;38.78;95142.69;5054364;28;20603;-59
2022/07/13 11:29:21;;;;;;;1.27;0.60;;;;;;;25.54;37.48;95166.81;5054221;28;20288;-60
2022/07/13 11:31:54;;;;;;;6.03;0.98;;;;;;;25.52;37.71;95164.41;5053851;28;20225;-60
2022/07/13 11:34:19;;;;;;;0.80;0.80;;;;;;;24.81;39.33;95123.84;5053911;28;20189;-62
2022/07/13 11:36:45;;;;;;;2.30;1.30;;;;;;;25.17;39.90;95113.69;5053978;28;20209;-64
2022/07/13 11:39:33;;;;;;;2.10;0.75;;;;;;;25.58;37.81;95162.78;5054223;28;20251;-62
2022/07/13 11:42:00;;;;;;;1.25;0.90;;;;;;;25.70;37.48;95161.09;5053852;28;20722;-63
2022/07/13 11:44:27;;;;;;;4.85;0.98;;;;;;;25.64;37.97;95133.28;5054120;28;20186;-61
2022/07/13 11:46:54;;;;;;;1.00;0.70;;;;;;;25.38;38.45;95128.19;5053662;28;20244;-61
2022/07/13 11:49:21;;;;;;;1.05;0.80;;;;;;;26.13;37.85;95148.19;5053680;28;20287;-64